Time;durP1;ratioP1;P1;durP2;ratioP2;P2;SDS_P1;SDS_P2;PMS_P1;PMS_P2;Temp;Humidity;BMP_temperature;BMP_pressure;BME280_temperature;BME280_humidity;BME280_pressure;Samples;Min_cycle;Max_cycle;Signal;HPM_P1;HPM_P2
2022/04/20 00:00:34;;;;;;;;;;;;;;;11.91;57.18;99689.00;5037083;28;19924;-66
2022/04/20 00:03:18;;;;;;;;;;;;;;;11.90;57.31;99694.22;5049270;28;20004;-66
2022/04/20 00:06:02;;;;;;;;;;;;;;;11.90;57.14;99694.22;5049760;28;19970;-65
2022/04/20 00:08:46;;;;;;;;;;;;;;;11.91;57.48;99693.34;5036060;28;19940;-65
2022/04/20 00:11:29;;;;;;;;;;;;;;;11.92;57.55;99684.69;5036601;28;19940;-66
2022/04/20 00:14:13;;;;;;;;;;;;;;;11.91;57.51;99682.97;5036912;28;20028;-66
2022/04/20 00:16:57;;;;;;;;;;;;;;;11.90;57.41;99689.03;5036292;28;20414;-66
2022/04/20 00:19:41;;;;;;;;;;;;;;;11.88;57.33;99681.22;5035991;28;19924;-65
2022/04/20 00:22:25;;;;;;;;;;;;;;;11.88;57.60;99689.88;5036739;28;20387;-66
2022/04/20 00:25:09;;;;;;;;;;;;;;;11.86;57.60;99680.31;5036023;28;19955;-66
2022/04/20 00:27:53;;;;;;;;;;;;;;;11.83;57.44;99681.19;5035798;28;19947;-66
2022/04/20 00:30:37;;;;;;;;;;;;;;;11.84;57.51;99682.94;5036091;28;20402;-66
2022/04/20 00:33:21;;;;;;;;;;;;;;;11.83;57.43;99683.78;5035230;28;19924;-65
2022/04/20 00:36:05;;;;;;;;;;;;;;;11.84;57.46;99688.13;5035017;28;19927;-66
2022/04/20 00:38:49;;;;;;;;;;;;;;;11.82;57.25;99687.25;5049272;28;19924;-65
2022/04/20 00:41:33;;;;;;;;;;;;;;;11.82;57.37;99689.84;5035897;28;19924;-66
2022/04/20 00:44:17;;;;;;;;;;;;;;;11.81;57.62;99692.44;5035856;28;19923;-65
2022/04/20 00:47:01;;;;;;;;;;;;;;;11.81;57.68;99693.28;5036096;28;19923;-65
2022/04/20 00:49:46;;;;;;;;;;;;;;;11.80;57.49;99688.97;5036162;28;19923;-66
2022/04/20 00:52:30;;;;;;;;;;;;;;;11.81;57.67;99697.63;5035441;28;19947;-66
2022/04/20 00:55:14;;;;;;;;;;;;;;;11.80;57.76;99696.75;5036336;28;19975;-65
2022/04/20 00:57:58;;;;;;;;;;;;;;;11.79;57.80;99692.41;5035708;28;19924;-65
2022/04/20 01:00:42;;;;;;;;;;;;;;;11.80;57.84;99688.09;5035869;28;19962;-65
2022/04/20 01:03:26;;;;;;;;;;;;;;;11.78;57.85;99688.06;5028973;28;19956;-67
2022/04/20 01:06:09;;;;;;;;;;;;;;;11.78;57.84;99690.69;5042876;28;19950;-66
2022/04/20 01:08:53;;;;;;;;;;;;;;;11.78;57.90;99687.22;5042206;28;20016;-66
2022/04/20 01:11:38;;;;;;;;;;;;;;;11.77;57.81;99683.75;5015261;28;19924;-65
2022/04/20 01:14:22;;;;;;;;;;;;;;;11.79;57.67;99694.16;5015600;28;19925;-66
2022/04/20 01:17:06;;;;;;;;;;;;;;;11.79;57.79;99683.78;5015229;28;20438;-65
2022/04/20 01:19:50;;;;;;;;;;;;;;;11.81;57.81;99692.44;5042523;28;19968;-65
2022/04/20 01:22:34;;;;;;;;;;;;;;;11.83;57.90;99685.53;5042476;28;19970;-66
2022/04/20 01:25:18;;;;;;;;;;;;;;;11.82;58.04;99692.44;5042744;28;20388;-65
2022/04/20 01:28:02;;;;;;;;;;;;;;;11.81;58.15;99689.84;5015617;28;19971;-66
2022/04/20 01:30:46;;;;;;;;;;;;;;;11.79;58.13;99689.81;5015071;28;20280;-66
2022/04/20 01:33:30;;;;;;;;;;;;;;;11.78;58.10;99682.88;5015674;28;20344;-65
2022/04/20 01:36:15;;;;;;;;;;;;;;;11.77;57.97;99694.13;5042402;28;20431;-65
2022/04/20 01:38:58;;;;;;;;;;;;;;;11.77;58.13;99694.13;5042544;28;19924;-65
2022/04/20 01:41:43;;;;;;;;;;;;;;;11.79;57.95;99691.56;5042732;28;19924;-65
2022/04/20 01:44:27;;;;;;;;;;;;;;;11.79;57.71;99696.75;5042131;28;19966;-65
2022/04/20 01:47:12;;;;;;;;;;;;;;;11.78;58.08;99693.28;5014860;28;20052;-68
2022/04/20 01:49:56;;;;;;;;;;;;;;;11.79;58.13;99692.41;5014810;28;19924;-67
2022/04/20 01:52:40;;;;;;;;;;;;;;;11.81;58.02;99692.44;5014781;28;19925;-65
2022/04/20 01:55:24;;;;;;;;;;;;;;;11.81;58.28;99698.47;5014522;28;20304;-66
2022/04/20 01:58:07;;;;;;;;;;;;;;;11.79;57.96;99702.78;5042346;28;20385;-66
2022/04/20 02:00:52;;;;;;;;;;;;;;;11.76;57.95;99704.50;5015225;28;20016;-65
2022/04/20 02:03:35;;;;;;;;;;;;;;;11.74;58.31;99707.13;5041750;28;20056;-65
2022/04/20 02:06:19;;;;;;;;;;;;;;;11.70;58.34;99698.41;5014231;28;19925;-65
2022/04/20 02:09:04;;;;;;;;;;;;;;;11.70;58.30;99705.34;5014748;28;20364;-65
2022/04/20 02:11:47;;;;;;;;;;;;;;;11.67;58.13;99710.53;5041385;28;19963;-65
2022/04/20 02:14:33;;;;;;;;;;;;;;;11.66;58.03;99709.66;5014549;28;19925;-65
2022/04/20 02:17:17;;;;;;;;;;;;;;;11.65;58.18;99707.03;5041998;28;19931;-65
2022/04/20 02:20:00;;;;;;;;;;;;;;;11.64;58.08;99703.59;5014753;28;19923;-66
2022/04/20 02:22:44;;;;;;;;;;;;;;;11.62;58.01;99700.13;5014697;28;19925;-66
2022/04/20 02:25:29;;;;;;;;;;;;;;;11.58;58.21;99696.63;5014432;28;20491;-66
2022/04/20 02:28:13;;;;;;;;;;;;;;;11.58;58.26;99695.75;5041537;28;19963;-65
2022/04/20 02:30:57;;;;;;;;;;;;;;;11.59;58.14;99694.91;5014499;28;19924;-65
2022/04/20 02:33:41;;;;;;;;;;;;;;;11.55;58.09;99691.44;5014288;28;20337;-66
2022/04/20 02:36:26;;;;;;;;;;;;;;;11.55;58.16;99694.03;5014686;28;20020;-66
2022/04/20 02:39:10;;;;;;;;;;;;;;;11.52;58.08;99686.22;5041321;28;20280;-66
2022/04/20 02:41:54;;;;;;;;;;;;;;;11.53;57.86;99692.25;5041887;28;19924;-65
2022/04/20 02:44:39;;;;;;;;;;;;;;;11.52;58.11;99686.22;5014289;28;19940;-65
2022/04/20 02:47:22;;;;;;;;;;;;;;;11.50;57.92;99689.66;5041267;28;19932;-65
2022/04/20 02:50:07;;;;;;;;;;;;;;;11.51;57.87;99700.03;5013870;28;19948;-66
2022/04/20 02:52:51;;;;;;;;;;;;;;;11.50;58.18;99700.91;5013887;28;19924;-66
2022/04/20 02:55:35;;;;;;;;;;;;;;;11.51;58.35;99707.81;5041004;28;20478;-66
2022/04/20 02:58:19;;;;;;;;;;;;;;;11.52;58.02;99701.78;5013899;28;19924;-66
2022/04/20 03:01:03;;;;;;;;;;;;;;;11.53;58.32;99705.22;5014032;28;19950;-66
2022/04/20 03:03:46;;;;;;;;;;;;;;;11.53;58.17;99703.53;5041367;28;20332;-65
2022/04/20 03:06:31;;;;;;;;;;;;;;;11.51;58.50;99705.22;5013654;28;19924;-66
2022/04/20 03:09:15;;;;;;;;;;;;;;;11.51;58.41;99704.38;5013856;28;19923;-66
2022/04/20 03:12:00;;;;;;;;;;;;;;;11.50;58.48;99713.88;5013808;28;19972;-65
2022/04/20 03:14:43;;;;;;;;;;;;;;;11.49;58.47;99701.75;5013482;28;19923;-65
2022/04/20 03:17:28;;;;;;;;;;;;;;;11.49;58.52;99703.50;5013742;28;19971;-67
2022/04/20 03:20:12;;;;;;;;;;;;;;;11.50;58.52;99724.25;5013712;28;20391;-65
2022/04/20 03:22:56;;;;;;;;;;;;;;;11.52;58.11;99721.69;5013901;28;20284;-65
2022/04/20 03:25:41;;;;;;;;;;;;;;;11.54;58.10;99719.94;5013384;28;20013;-66
2022/04/20 03:28:25;;;;;;;;;;;;;;;11.56;58.57;99728.59;5040631;28;20371;-66
2022/04/20 03:31:09;;;;;;;;;;;;;;;11.57;58.53;99727.75;5014132;28;19947;-65
2022/04/20 03:33:53;;;;;;;;;;;;;;;11.56;58.12;99729.50;5017470;28;19924;-65
2022/04/20 03:36:37;;;;;;;;;;;;;;;11.55;58.24;99729.47;5017576;28;20292;-66
2022/04/20 03:39:21;;;;;;;;;;;;;;;11.54;58.17;99727.72;5017519;28;19932;-66
2022/04/20 03:42:05;;;;;;;;;;;;;;;11.52;58.07;99727.72;5017388;28;19943;-66
2022/04/20 03:44:48;;;;;;;;;;;;;;;11.51;58.25;99728.59;5017486;28;19943;-66
2022/04/20 03:47:32;;;;;;;;;;;;;;;11.49;58.45;99735.50;5017394;28;19964;-65
2022/04/20 03:50:17;;;;;;;;;;;;;;;11.52;58.62;99740.72;5017051;28;19925;-66
2022/04/20 03:53:01;;;;;;;;;;;;;;;11.53;58.44;99750.22;5016949;28;20455;-65
2022/04/20 03:55:44;;;;;;;;;;;;;;;11.53;58.52;99742.44;5016953;28;19923;-65
2022/04/20 03:58:28;;;;;;;;;;;;;;;11.53;58.60;99742.44;5017056;28;20348;-65
2022/04/20 04:01:12;;;;;;;;;;;;;;;11.54;58.43;99739.00;5017648;28;20036;-66
2022/04/20 04:03:56;;;;;;;;;;;;;;;11.52;58.73;99743.31;5036144;28;20261;-65
2022/04/20 04:06:40;;;;;;;;;;;;;;;11.47;58.54;99742.38;5036740;28;19924;-65
2022/04/20 04:09:24;;;;;;;;;;;;;;;11.43;58.78;99757.06;5021952;28;19924;-66
2022/04/20 04:12:08;;;;;;;;;;;;;;;11.42;58.27;99754.47;5036272;28;20295;-65
2022/04/20 04:14:52;;;;;;;;;;;;;;;11.43;58.42;99764.00;5036541;28;19944;-66
2022/04/20 04:17:37;;;;;;;;;;;;;;;11.41;58.25;99761.38;5036830;28;20296;-65
2022/04/20 04:20:21;;;;;;;;;;;;;;;11.39;58.56;99765.69;5036854;28;19963;-66
2022/04/20 04:23:05;;;;;;;;;;;;;;;11.39;58.61;99772.63;5049792;28;20092;-66
2022/04/20 04:25:48;;;;;;;;;;;;;;;11.34;58.72;99772.56;5036202;28;19923;-66
2022/04/20 04:28:32;;;;;;;;;;;;;;;11.32;58.45;99768.22;5036304;28;20032;-65
2022/04/20 04:31:16;;;;;;;;;;;;;;;11.31;58.43;99771.66;5036437;28;19970;-67
2022/04/20 04:34:00;;;;;;;;;;;;;;;11.27;58.74;99774.25;5036431;28;19924;-66
2022/04/20 04:36:44;;;;;;;;;;;;;;;11.25;58.32;99764.69;5036238;28;19962;-65
2022/04/20 04:39:28;;;;;;;;;;;;;;;11.21;58.30;99776.78;5035975;28;20423;-66
2022/04/20 04:42:13;;;;;;;;;;;;;;;11.19;58.40;99783.69;5035938;28;19923;-66
2022/04/20 04:48:36;;;;;;;;;;;;;;;11.16;58.84;99788.81;5034341;28;20394;-65
2022/04/20 04:51:06;;;;;;;;;;;;;;;11.13;58.36;99783.63;5035487;28;19951;-66
2022/04/20 04:53:50;;;;;;;;;;;;;;;11.12;58.50;99784.50;5035510;28;20029;-65
2022/04/20 04:56:34;;;;;;;;;;;;;;;11.12;58.44;99789.69;5035868;28;19939;-65
2022/04/20 04:59:18;;;;;;;;;;;;;;;11.10;58.48;99787.03;5035672;28;20411;-65
2022/04/20 05:02:02;;;;;;;;;;;;;;;11.09;58.46;99793.09;5034871;28;19932;-66
2022/04/20 05:04:46;;;;;;;;;;;;;;;11.10;58.58;99797.41;5035592;28;19966;-65
2022/04/20 05:07:30;;;;;;;;;;;;;;;11.09;58.53;99795.69;5035645;28;19970;-65
2022/04/20 05:10:14;;;;;;;;;;;;;;;11.12;58.51;99803.50;5035903;28;19932;-65
2022/04/20 05:12:59;;;;;;;;;;;;;;;11.10;58.64;99799.16;5035185;28;19924;-65
2022/04/20 05:15:43;;;;;;;;;;;;;;;11.09;58.50;99792.22;5034350;28;19971;-66
2022/04/20 05:18:27;;;;;;;;;;;;;;;11.08;58.45;99803.47;5035322;28;19986;-66
2022/04/20 05:21:11;;;;;;;;;;;;;;;11.09;58.53;99803.47;5035516;28;19971;-66
2022/04/20 05:23:58;;;;;;;;;;;;;;;11.07;58.72;99802.56;5035096;28;19943;-65
2022/04/20 05:26:42;;;;;;;;;;;;;;;11.08;58.56;99806.91;5048137;28;20051;-66
2022/04/20 05:29:26;;;;;;;;;;;;;;;11.11;58.60;99808.69;5035517;28;19928;-65
2022/04/20 05:32:10;;;;;;;;;;;;;;;11.12;58.43;99807.84;5035155;28;20000;-66
2022/04/20 05:34:53;;;;;;;;;;;;;;;11.12;58.60;99811.28;5035415;28;19963;-65
2022/04/20 05:43:44;;;;;;;;;;;;;;;11.19;58.61;99824.31;5035100;28;19924;-66
2022/04/20 05:46:28;;;;;;;;;;;;;;;11.20;58.44;99823.47;5034746;28;19924;-65
2022/04/20 05:49:12;;;;;;;;;;;;;;;11.23;58.52;99829.56;5034767;28;20304;-66
2022/04/20 05:51:56;;;;;;;;;;;;;;;11.25;58.42;99824.38;5034136;28;19936;-65
2022/04/20 05:54:40;;;;;;;;;;;;;;;11.25;58.41;99824.38;5034378;28;20402;-66
2022/04/20 05:57:24;;;;;;;;;;;;;;;11.24;58.50;99831.28;5034741;28;19924;-65
2022/04/20 06:00:08;;;;;;;;;;;;;;;11.23;58.54;99829.56;5034427;28;19923;-65
2022/04/20 06:02:54;;;;;;;;;;;;;;;11.23;58.59;99833.84;5034461;28;20047;-65
2022/04/20 06:05:38;;;;;;;;;;;;;;;11.22;58.52;99830.41;5019918;28;20459;-65
2022/04/20 06:08:23;;;;;;;;;;;;;;;11.21;58.84;99833.84;5034373;28;19962;-65
2022/04/20 06:11:06;;;;;;;;;;;;;;;11.23;58.47;99837.34;5034603;28;19971;-66
2022/04/20 06:13:50;;;;;;;;;;;;;;;11.23;58.56;99833.84;5033905;28;19924;-65
2022/04/20 06:16:34;;;;;;;;;;;;;;;11.23;58.79;99834.75;5034382;28;20386;-66
2022/04/20 06:19:18;;;;;;;;;;;;;;;11.24;58.64;99828.69;5034582;28;19923;-66
2022/04/20 06:22:02;;;;;;;;;;;;;;;11.25;58.79;99832.16;5033791;28;19963;-66
2022/04/20 06:24:46;;;;;;;;;;;;;;;11.24;58.55;99828.69;5033198;28;19924;-65
2022/04/20 06:27:31;;;;;;;;;;;;;;;11.25;58.76;99820.06;5047253;28;19924;-66
2022/04/20 06:30:14;;;;;;;;;;;;;;;11.26;58.80;99826.09;5034315;28;19928;-65
2022/04/20 06:32:58;;;;;;;;;;;;;;;11.26;59.01;99820.91;5033814;28;19923;-66
2022/04/20 06:35:42;;;;;;;;;;;;;;;11.26;58.77;99828.69;5034357;28;19975;-66
2022/04/20 06:38:26;;;;;;;;;;;;;;;11.24;58.46;99828.69;5033937;28;19971;-65
2022/04/20 06:41:10;;;;;;;;;;;;;;;11.25;58.46;99829.56;5032802;28;19923;-65
2022/04/20 06:43:54;;;;;;;;;;;;;;;11.26;58.65;99824.41;5033871;28;19971;-66
2022/04/20 06:46:38;;;;;;;;;;;;;;;11.26;58.73;99831.28;5033873;28;19987;-65
2022/04/20 06:49:22;;;;;;;;;;;;;;;11.25;58.62;99827.84;5033996;28;19924;-66
2022/04/20 07:01:15;;;;;;;;;;;;;;;11.25;58.45;99838.22;5033871;28;19963;-65
2022/04/20 07:03:59;;;;;;;;;;;;;;;11.25;58.51;99833.03;5046815;28;19967;-66
2022/04/20 07:06:43;;;;;;;;;;;;;;;11.24;58.74;99833.88;5034189;28;19924;-65
2022/04/20 07:09:27;;;;;;;;;;;;;;;11.25;58.39;99832.16;5037703;28;19927;-66
2022/04/20 07:12:11;;;;;;;;;;;;;;;11.25;58.84;99832.16;5037196;28;20339;-65
2022/04/20 07:14:55;;;;;;;;;;;;;;;11.25;58.41;99833.03;5037787;28;19970;-65
2022/04/20 07:17:39;;;;;;;;;;;;;;;11.25;58.69;99838.22;5037655;28;19924;-65
2022/04/20 07:20:23;;;;;;;;;;;;;;;11.25;58.21;99821.78;5037421;28;19923;-65
2022/04/20 07:23:08;;;;;;;;;;;;;;;11.25;58.40;99827.84;5037492;28;19924;-65
2022/04/20 07:25:52;;;;;;;;;;;;;;;11.26;58.35;99824.41;5037013;28;19940;-66
2022/04/20 07:28:36;;;;;;;;;;;;;;;11.28;58.74;99832.19;5036867;28;19928;-66
2022/04/20 07:31:19;;;;;;;;;;;;;;;11.28;58.57;99824.41;5050362;28;19971;-65
2022/04/20 07:34:03;;;;;;;;;;;;;;;11.30;58.83;99825.28;5037331;28;20352;-65
2022/04/20 07:36:49;;;;;;;;;;;;;;;11.30;58.61;99833.06;5037654;28;19931;-66
2022/04/20 07:39:33;;;;;;;;;;;;;;;11.31;58.58;99832.22;5036093;28;19931;-65
2022/04/20 07:42:17;;;;;;;;;;;;;;;11.30;58.55;99843.44;5037503;28;19988;-65
2022/04/20 07:45:02;;;;;;;;;;;;;;;11.31;58.92;99834.81;5037193;28;20285;-66
2022/04/20 07:47:46;;;;;;;;;;;;;;;11.33;58.87;99830.50;5037118;28;19928;-65
2022/04/20 07:50:31;;;;;;;;;;;;;;;11.33;58.86;99830.50;5035840;28;19940;-65
2022/04/20 07:53:15;;;;;;;;;;;;;;;11.33;58.63;99832.22;5050385;28;20355;-65
2022/04/20 07:56:00;;;;;;;;;;;;;;;11.34;58.80;99823.59;5036788;28;19924;-65
2022/04/20 07:58:44;;;;;;;;;;;;;;;11.34;58.48;99818.41;5037154;28;20422;-66
2022/04/20 08:01:28;;;;;;;;;;;;;;;11.34;58.95;99832.25;5049384;28;19924;-66
2022/04/20 08:04:12;;;;;;;;;;;;;;;11.36;58.77;99830.56;5036672;28;19964;-66
2022/04/20 08:06:55;;;;;;;;;;;;;;;11.35;58.52;99827.91;5036987;28;19951;-66
2022/04/20 08:09:39;;;;;;;;;;;;;;;11.37;58.65;99828.81;5036527;28;19932;-65
2022/04/20 08:12:24;;;;;;;;;;;;;;;11.38;58.12;99830.56;5049593;28;19924;-65
2022/04/20 08:15:09;;;;;;;;;;;;;;;11.38;58.34;99834.00;5036099;28;19967;-66
2022/04/20 08:17:54;;;;;;;;;;;;;;;11.39;58.68;99838.34;5035979;28;20295;-66
2022/04/20 08:20:37;;;;;;;;;;;;;;;11.40;58.52;99836.63;5035550;28;19924;-65
2022/04/20 08:23:21;;;;;;;;;;;;;;;11.38;58.40;99838.34;5036255;28;20016;-65
2022/04/20 08:26:05;;;;;;;;;;;;;;;11.37;58.17;99831.41;5036370;28;20030;-65
2022/04/20 08:28:49;;;;;;;;;;;;;;;11.41;58.55;99833.19;5036605;28;19924;-65
2022/04/20 08:31:33;;;;;;;;;;;;;;;11.39;58.33;99829.69;5035893;28;20315;-65
2022/04/20 08:34:17;;;;;;;;;;;;;;;11.40;58.31;99841.81;5049474;28;19968;-65
2022/04/20 08:37:00;;;;;;;;;;;;;;;11.40;58.07;99836.63;5035962;28;19924;-65
2022/04/20 08:39:44;;;;;;;;;;;;;;;11.41;58.09;99838.38;5035818;28;20353;-65
2022/04/20 08:42:32;;;;;;;;;;;;;;;11.42;58.19;99840.13;5035829;28;20012;-66
2022/04/20 08:45:16;;;;;;;;;;;;;;;11.42;58.04;99840.97;5020869;28;19935;-66
2022/04/20 08:48:00;;;;;;;;;;;;;;;11.42;58.09;99835.78;5034765;28;20047;-65
2022/04/20 08:50:44;;;;;;;;;;;;;;;11.42;58.28;99832.31;5020800;28;19924;-65
2022/04/20 08:53:28;;;;;;;;;;;;;;;11.42;58.10;99833.19;5035750;28;19971;-65
2022/04/20 08:59:15;;;;;;;;;;;;;;;11.47;58.12;99832.38;5035413;28;19967;-65
2022/04/20 09:02:00;;;;;;;;;;;;;;;11.48;58.37;99834.97;5020367;28;20461;-66
2022/04/20 09:04:44;;;;;;;;;;;;;;;11.49;58.33;99834.09;5035263;28;20010;-66
2022/04/20 09:07:31;;;;;;;;;;;;;;;11.52;58.17;99833.28;5035661;28;19924;-65
2022/04/20 09:10:18;;;;;;;;;;;;;;;11.49;57.98;99831.50;5034491;28;19927;-65
2022/04/20 09:13:04;;;;;;;;;;;;;;;11.48;57.91;99837.56;5034568;28;19924;-66
2022/04/20 09:15:50;;;;;;;;;;;;;;;11.52;58.11;99830.69;5034381;28;20331;-65
2022/04/20 09:18:34;;;;;;;;;;;;;;;11.55;57.97;99833.28;5035444;28;20331;-65
2022/04/20 09:21:20;;;;;;;;;;;;;;;11.56;57.81;99837.63;5035363;28;19943;-65
2022/04/20 09:24:05;;;;;;;;;;;;;;;11.56;57.97;99825.53;5048800;28;20419;-65
2022/04/20 09:26:51;;;;;;;;;;;;;;;11.60;57.82;99826.41;5034283;28;19924;-65
2022/04/20 09:29:39;;;;;;;;;;;;;;;11.61;57.70;99835.06;5034461;28;20039;-65
2022/04/20 09:32:37;;;;;;;;;;;;;;;11.64;57.83;99835.09;5034212;28;19923;-65
2022/04/20 09:35:21;;;;;;;;;;;;;;;11.63;58.05;99820.38;5033607;28;19967;-65
2022/04/20 09:38:05;;;;;;;;;;;;;;;11.67;57.66;99816.94;5033838;28;19924;-66
2022/04/20 09:40:49;;;;;;;;;;;;;;;11.67;57.41;99824.72;5034480;28;19966;-65
2022/04/20 09:43:33;;;;;;;;;;;;;;;11.66;57.67;99821.28;5035151;28;19924;-64
2022/04/20 09:49:21;;;;;;;;;;;;;;;11.70;57.74;99824.78;5035206;28;20387;-66
2022/04/20 09:52:12;;;;;;;;;;;;;;;11.72;57.86;99821.31;5033971;28;19924;-65
2022/04/20 09:54:57;;;;;;;;;;;;;;;11.72;57.03;99818.72;5033975;28;19947;-66
2022/04/20 09:57:41;;;;;;;;;;;;;;;11.72;57.29;99823.91;5034551;28;19924;-67
2022/04/20 10:00:24;;;;;;;;;;;;;;;11.72;57.57;99823.91;5034252;28;19924;-65
2022/04/20 10:03:08;;;;;;;;;;;;;;;11.73;57.58;99820.47;5034614;28;19924;-65
2022/04/20 10:05:53;;;;;;;;;;;;;;;11.76;57.70;99817.00;5034504;28;19923;-65
2022/04/20 10:08:37;;;;;;;;;;;;;;;11.77;57.43;99812.69;5034316;28;19947;-65
2022/04/20 10:11:22;;;;;;;;;;;;;;;11.78;57.71;99804.91;5034443;28;19997;-65
2022/04/20 10:17:14;;;;;;;;;;;;;;;11.84;57.53;99802.38;5034631;28;19924;-65
2022/04/20 10:19:59;;;;;;;;;;;;;;;11.88;56.81;99798.94;5033309;28;19924;-65
2022/04/20 10:22:45;;;;;;;;;;;;;;;11.87;57.25;99807.59;5047538;28;19962;-65
2022/04/20 10:25:29;;;;;;;;;;;;;;;11.88;56.82;99811.03;5033096;28;20402;-65
2022/04/20 10:28:17;;;;;;;;;;;;;;;11.90;56.91;99803.28;5033226;28;19939;-65
2022/04/20 10:31:10;;;;;;;;;;;;;;;11.92;56.56;99804.13;5033219;28;20011;-65
2022/04/20 10:33:54;;;;;;;;;;;;;;;11.91;56.79;99802.44;5033991;28;19923;-66
2022/04/20 10:36:38;;;;;;;;;;;;;;;11.91;56.91;99802.44;5033787;28;19923;-65
2022/04/20 10:39:23;;;;;;;;;;;;;;;11.94;56.86;99794.63;5034131;28;19963;-65
2022/04/20 10:42:17;;;;;;;;;;;;;;;11.95;56.79;99785.97;5032900;28;19924;-66
2022/04/20 10:45:01;;;;;;;;;;;;;;;11.95;56.44;99796.38;5047197;28;19923;-65
2022/04/20 10:47:55;;;;;;;;;;;;;;;11.94;56.62;99787.72;5033730;28;19924;-65
2022/04/20 10:50:39;;;;;;;;;;;;;;;11.96;56.84;99788.59;5032949;28;19924;-65
2022/04/20 10:53:23;;;;;;;;;;;;;;;11.98;56.32;99780.81;5033703;28;20280;-65
2022/04/20 10:56:07;;;;;;;;;;;;;;;11.95;56.46;99779.06;5033343;28;20054;-65
2022/04/20 10:58:53;;;;;;;;;;;;;;;11.96;56.81;99772.13;5033881;28;19923;-65
2022/04/20 11:01:56;;;;;;;;;;;;;;;11.99;56.39;99757.47;5032741;28;19924;-65
2022/04/20 11:04:46;;;;;;;;;;;;;;;12.02;56.40;99767.03;5033423;28;19959;-65
2022/04/20 11:07:34;;;;;;;;;;;;;;;12.01;56.33;99776.53;5046708;28;20395;-66
2022/04/20 11:10:18;;;;;;;;;;;;;;;12.01;56.30;99773.06;5032480;28;19939;-64
2022/04/20 11:19:36;;;;;;;;;;;;;;;11.99;55.58;99764.41;5033553;28;19928;-65
2022/04/20 11:22:24;;;;;;;;;;;;;;;12.00;55.90;99766.16;5033884;28;19923;-64
2022/04/20 11:25:09;;;;;;;;;;;;;;;12.00;55.92;99755.75;5033181;28;19963;-65
2022/04/20 11:28:00;;;;;;;;;;;;;;;12.02;55.75;99752.28;5033742;28;20428;-65
2022/04/20 11:30:44;;;;;;;;;;;;;;;12.01;55.82;99749.69;5033723;28;19960;-64
2022/04/20 11:33:30;;;;;;;;;;;;;;;12.03;55.91;99748.00;5046833;28;19924;-66
2022/04/20 11:36:14;;;;;;;;;;;;;;;12.04;55.40;99744.53;5032498;28;19944;-66
2022/04/20 11:38:59;;;;;;;;;;;;;;;12.04;55.52;99754.91;5033710;28;19924;-66
2022/04/20 11:41:45;;;;;;;;;;;;;;;12.06;55.28;99755.81;5033412;28;19966;-65
2022/04/20 11:44:30;;;;;;;;;;;;;;;12.06;55.13;99762.72;5033629;28;19971;-65
2022/04/20 11:47:17;;;;;;;;;;;;;;;12.07;55.87;99743.66;5033632;28;19924;-65
2022/04/20 11:50:02;;;;;;;;;;;;;;;12.08;55.65;99746.25;5033572;28;20012;-65
2022/04/20 11:52:57;;;;;;;;;;;;;;;12.10;55.27;99743.69;5019438;28;19924;-65
2022/04/20 11:55:47;;;;;;;;;;;;;;;12.10;55.72;99738.50;5036973;28;19924;-65
2022/04/20 11:58:31;;;;;;;;;;;;;;;12.08;55.71;99745.41;5037104;28;19967;-65
2022/04/20 12:01:15;;;;;;;;;;;;;;;12.10;55.65;99731.56;5036487;28;19924;-65
2022/04/20 12:04:01;;;;;;;;;;;;;;;12.11;55.69;99743.69;5036831;28;19985;-65
2022/04/20 12:06:55;;;;;;;;;;;;;;;12.13;55.58;99735.91;5036963;28;20410;-65
2022/04/20 12:09:42;;;;;;;;;;;;;;;12.13;55.27;99728.13;5050173;28;20031;-66
2022/04/20 12:12:26;;;;;;;;;;;;;;;12.12;55.24;99726.38;5035700;28;19943;-66
2022/04/20 12:15:10;;;;;;;;;;;;;;;12.13;55.62;99726.38;5049826;28;19964;-66
2022/04/20 12:17:56;;;;;;;;;;;;;;;12.15;55.03;99726.38;5036406;28;20334;-65
2022/04/20 12:20:46;;;;;;;;;;;;;;;12.15;54.79;99719.47;5035587;28;20403;-66
2022/04/20 12:23:34;;;;;;;;;;;;;;;12.15;55.32;99722.06;5035671;28;20413;-65
2022/04/20 12:26:25;;;;;;;;;;;;;;;12.15;54.98;99713.38;5036562;28;19923;-65
2022/04/20 12:29:09;;;;;;;;;;;;;;;12.15;55.40;99716.88;5035674;28;19940;-65
2022/04/20 12:31:57;;;;;;;;;;;;;;;12.16;55.37;99718.59;5034952;28;19923;-66
2022/04/20 12:34:51;;;;;;;;;;;;;;;12.15;55.46;99715.97;5036619;28;20387;-66
2022/04/20 12:37:39;;;;;;;;;;;;;;;12.16;55.18;99712.53;5036470;28;19962;-65
2022/04/20 12:40:27;;;;;;;;;;;;;;;12.17;54.88;99707.34;5049292;28;20395;-65
2022/04/20 12:43:12;;;;;;;;;;;;;;;12.17;55.67;99707.34;5035939;28;19939;-65
2022/04/20 12:46:12;;;;;;;;;;;;;;;12.19;54.90;99707.34;5034831;28;19994;-65
2022/04/20 12:48:56;;;;;;;;;;;;;;;12.19;54.95;99704.75;5035267;28;20030;-65
2022/04/20 12:51:40;;;;;;;;;;;;;;;12.20;54.62;99690.03;5035947;28;19923;-65
2022/04/20 12:54:24;;;;;;;;;;;;;;;12.20;54.74;99696.09;5034708;28;19924;-66
2022/04/20 13:03:30;;;;;;;;;;;;;;;12.19;54.37;99676.16;5035737;28;19924;-65
2022/04/20 13:06:14;;;;;;;;;;;;;;;12.20;54.65;99674.47;5035793;28;20002;-65
2022/04/20 13:08:59;;;;;;;;;;;;;;;12.18;54.14;99669.25;5035590;28;19970;-65
2022/04/20 13:11:44;;;;;;;;;;;;;;;12.18;54.55;99672.72;5035371;28;19924;-65
2022/04/20 13:14:28;;;;;;;;;;;;;;;12.19;54.98;99663.19;5048904;28;19924;-65
2022/04/20 13:17:12;;;;;;;;;;;;;;;12.20;54.79;99662.31;5034300;28;19971;-65
2022/04/20 13:19:56;;;;;;;;;;;;;;;12.20;54.87;99661.47;5035463;28;19974;-65
2022/04/20 13:22:40;;;;;;;;;;;;;;;12.21;55.04;99660.59;5034803;28;19924;-65
2022/04/20 13:28:28;;;;;;;;;;;;;;;12.23;54.71;99648.47;5035119;28;20307;-65
2022/04/20 13:31:12;;;;;;;;;;;;;;;12.25;54.41;99651.94;5034457;28;19924;-65
2022/04/20 13:33:56;;;;;;;;;;;;;;;12.24;54.54;99645.88;5034942;28;19929;-65
2022/04/20 13:36:40;;;;;;;;;;;;;;;12.26;54.34;99649.38;5033986;28;19943;-65
2022/04/20 13:39:24;;;;;;;;;;;;;;;12.25;54.52;99650.22;5035178;28;19939;-65
2022/04/20 13:42:08;;;;;;;;;;;;;;;12.24;54.53;99643.28;5034558;28;19923;-66
2022/04/20 13:44:52;;;;;;;;;;;;;;;12.25;54.83;99637.22;5034991;28;19924;-66
2022/04/20 13:47:36;;;;;;;;;;;;;;;12.28;54.66;99636.38;5019871;28;19942;-65
2022/04/20 13:50:20;;;;;;;;;;;;;;;12.26;54.56;99643.28;5019991;28;19924;-65
2022/04/20 13:53:05;;;;;;;;;;;;;;;12.27;54.52;99640.72;5034036;28;19939;-64
2022/04/20 13:55:49;;;;;;;;;;;;;;;12.29;54.77;99632.91;5034780;28;19923;-65
2022/04/20 13:58:35;;;;;;;;;;;;;;;12.31;54.83;99636.38;5034231;28;19963;-65
2022/04/20 14:01:20;;;;;;;;;;;;;;;12.31;54.11;99634.63;5033945;28;19971;-65
2022/04/20 14:04:04;;;;;;;;;;;;;;;12.31;54.75;99642.44;5033854;28;20471;-65
2022/04/20 14:06:50;;;;;;;;;;;;;;;12.29;54.90;99638.97;5034616;28;20085;-65
2022/04/20 14:09:34;;;;;;;;;;;;;;;12.31;54.41;99628.59;5033751;28;20315;-65
2022/04/20 14:12:18;;;;;;;;;;;;;;;12.30;54.77;99642.44;5034528;28;19923;-64
2022/04/20 14:15:03;;;;;;;;;;;;;;;12.31;54.70;99634.63;5034558;28;19924;-65
2022/04/20 14:17:47;;;;;;;;;;;;;;;12.32;55.03;99638.97;5033669;28;19970;-65
2022/04/20 14:20:31;;;;;;;;;;;;;;;12.34;54.63;99636.38;5034102;28;20446;-65
2022/04/20 14:23:15;;;;;;;;;;;;;;;12.31;54.52;99631.19;5033379;28;19967;-66
2022/04/20 14:32:14;;;;;;;;;;;;;;;12.33;54.72;99619.06;5033704;28;19971;-65
2022/04/20 14:34:58;;;;;;;;;;;;;;;12.33;54.72;99619.06;5047456;28;20327;-66
2022/04/20 14:37:42;;;;;;;;;;;;;;;12.34;54.46;99618.19;5047528;28;19923;-65
2022/04/20 14:40:26;;;;;;;;;;;;;;;12.36;54.38;99613.00;5018631;28;20474;-66
2022/04/20 14:43:10;;;;;;;;;;;;;;;12.34;54.90;99613.00;5047310;28;19924;-65
2022/04/20 14:45:54;;;;;;;;;;;;;;;12.34;54.57;99615.59;5032705;28;20398;-65
2022/04/20 14:48:38;;;;;;;;;;;;;;;12.32;54.75;99612.97;5033331;28;20004;-65
2022/04/20 14:51:22;;;;;;;;;;;;;;;12.32;54.90;99617.31;5033576;28;20066;-66
2022/04/20 14:54:07;;;;;;;;;;;;;;;12.33;55.06;99619.91;5033897;28;19924;-65
2022/04/20 14:56:52;;;;;;;;;;;;;;;12.36;55.22;99616.47;5033418;28;20391;-65
2022/04/20 14:59:36;;;;;;;;;;;;;;;12.37;55.07;99626.00;5034115;28;20120;-66
2022/04/20 15:02:20;;;;;;;;;;;;;;;12.36;55.38;99616.47;5032542;28;19923;-66
2022/04/20 15:05:05;;;;;;;;;;;;;;;12.36;55.41;99618.19;5033598;28;19924;-65
2022/04/20 15:07:49;;;;;;;;;;;;;;;12.35;55.46;99612.16;5033855;28;19963;-65